Zürich, Zwitserland

11:11 AM CET op 22 november 2014 (GMT +0100)
Zurich-Witikon | Change Station
CLOSE
Current Station
Persoonlijk weerstation
Location: Zürich, ZüRICH
Geometrische hoogte: 1998 ft
Nabije weerstations

Hoogte 1998 ft 47.36 °N, 8.60 °E | Updated 16 seconds ago

Fog
Mist
43.9 °F
Voelt als 44 °F
N
0.2
Wind Variabel Wind van ZW
Gusts 2.0 mijl/u

Vandaag
Hoog -- | Laag -- °F
--% Kans op neerslag
Gisteren
Hoog -- | Laag -- °F
Precip. -- inches
7:39 AM 4:43 PM
Afnemende halvemaan, 0% visible
Druk 30.18 inches
Zicht 0.2 mijlen
Wolken
Gevoelstemperatuur 44 °F
Dauwpunt 44 °F
Vochtigheid 99%
Neerslag 0.00 inches
Dikte sneeuw Niet beschikbaar.
UV 1.1 van de 12
Pollen Niet beschikbaar.
Luchtkwaliteit Niet beschikbaar.
Flu Activity Niet beschikbaar.
METAR LSMD 220950Z AUTO VRB01KT 0350NDV R11/0450N R29/0500N FG VV001 05/05 Q1022 RMK RED

More Conditions Fewer Conditions

Druk 30.18 inches
Zicht 0.2 mijlen
Wolken
Gevoelstemperatuur 44 °F
Dauwpunt 44 °F
Vochtigheid 99%
Neerslag 0.00 inches
Dikte sneeuw Niet beschikbaar.
UV 1.1 van de 12
Pollen Niet beschikbaar.
Luchtkwaliteit Niet beschikbaar.
Flu Activity Niet beschikbaar.
METAR LSMD 220950Z AUTO VRB01KT 0350NDV R11/0450N R29/0500N FG VV001 05/05 Q1022 RMK RED

More Conditions Fewer Conditions

10-Day Weather Forecast

Almanac

Astronomie

Nov. 22, 2014 Opkomst Ondergang
Werkelijke tijd
Burgerlijke schemering
Nautische schemering
Astronomische schemering
Maan
Golflengte van het zichtbare licht
Daglengte
Tomorrow will be .
, % of the Moon is Illuminated

Extremen vandaag

Country Highs Country Lows

Community

WunderPhotos

Upload Photos

1,772,799 foto’s ge-upload!

WunderBlogs® & News

Nearby

Luchtkwaliteit

  Luchtkwaliteit LK-index Verontreinigende stof
Not available.

Dikte sneeuw

Station Depth Geometrische hoogte

Aardbevingen

Stad Distance Mag. Time & Date
Minimum magnitude displayed is 2.5.

Watertemperatuur langs de kust

Plaats Temperatuur

Nabije weerstations